sensor_id;sensor_type;location;lat;lon;timestamp;temperature;humidity
12847;DHT22;6492;48.128;8.320;2024-01-30T00:02:47;5.50;1.00
12847;DHT22;6492;48.128;8.320;2024-01-30T00:06:51;5.30;1.00
12847;DHT22;6492;48.128;8.320;2024-01-30T00:10:53;5.40;1.00
12847;DHT22;6492;48.128;8.320;2024-01-30T00:14:56;5.60;1.00
12847;DHT22;6492;48.128;8.320;2024-01-30T00:19:04;5.70;1.00
12847;DHT22;6492;48.128;8.320;2024-01-30T00:23:06;5.80;1.00
12847;DHT22;6492;48.128;8.320;2024-01-30T00:27:08;5.80;1.00
12847;DHT22;6492;48.128;8.320;2024-01-30T00:31:11;5.70;1.00
12847;DHT22;6492;48.128;8.320;2024-01-30T00:35:13;5.60;1.00
12847;DHT22;6492;48.128;8.320;2024-01-30T00:39:15;5.60;1.00
12847;DHT22;6492;48.128;8.320;2024-01-30T00:43:17;5.60;1.00
12847;DHT22;6492;48.128;8.320;2024-01-30T00:47:20;5.70;1.00
12847;DHT22;6492;48.128;8.320;2024-01-30T00:51:21;5.60;1.00
12847;DHT22;6492;48.128;8.320;2024-01-30T00:55:23;5.60;1.00
12847;DHT22;6492;48.128;8.320;2024-01-30T00:59:25;5.80;1.00
12847;DHT22;6492;48.128;8.320;2024-01-30T01:03:28;6.10;1.00
12847;DHT22;6492;48.128;8.320;2024-01-30T01:07:30;6.40;1.00
12847;DHT22;6492;48.128;8.320;2024-01-30T01:11:31;6.80;1.00
12847;DHT22;6492;48.128;8.320;2024-01-30T01:15:34;7.10;1.00
12847;DHT22;6492;48.128;8.320;2024-01-30T01:19:37;7.40;1.00
12847;DHT22;6492;48.128;8.320;2024-01-30T01:23:39;7.60;1.00
12847;DHT22;6492;48.128;8.320;2024-01-30T01:27:41;7.80;1.00
12847;DHT22;6492;48.128;8.320;2024-01-30T01:31:44;8.00;1.00
12847;DHT22;6492;48.128;8.320;2024-01-30T01:35:48;8.10;1.00
12847;DHT22;6492;48.128;8.320;2024-01-30T01:39:53;8.30;1.00
12847;DHT22;6492;48.128;8.320;2024-01-30T01:43:55;8.50;1.00
12847;DHT22;6492;48.128;8.320;2024-01-30T01:47:57;8.50;1.00
12847;DHT22;6492;48.128;8.320;2024-01-30T01:52:00;8.40;1.00
12847;DHT22;6492;48.128;8.320;2024-01-30T01:56:02;8.50;1.00
12847;DHT22;6492;48.128;8.320;2024-01-30T02:00:05;8.40;1.00
12847;DHT22;6492;48.128;8.320;2024-01-30T02:04:08;8.50;1.00
12847;DHT22;6492;48.128;8.320;2024-01-30T02:08:11;8.50;1.00
12847;DHT22;6492;48.128;8.320;2024-01-30T02:12:13;8.50;1.00
12847;DHT22;6492;48.128;8.320;2024-01-30T02:16:14;8.50;1.00
12847;DHT22;6492;48.128;8.320;2024-01-30T02:20:17;8.40;1.00
12847;DHT22;6492;48.128;8.320;2024-01-30T02:24:21;8.30;1.00
12847;DHT22;6492;48.128;8.320;2024-01-30T02:28:22;8.10;1.00
12847;DHT22;6492;48.128;8.320;2024-01-30T02:32:24;8.00;1.00
12847;DHT22;6492;48.128;8.320;2024-01-30T02:36:26;7.90;1.00
12847;DHT22;6492;48.128;8.320;2024-01-30T02:40:29;7.80;1.00
12847;DHT22;6492;48.128;8.320;2024-01-30T02:44:31;7.80;1.00
12847;DHT22;6492;48.128;8.320;2024-01-30T02:48:33;7.70;1.00
12847;DHT22;6492;48.128;8.320;2024-01-30T02:52:34;7.80;1.00
12847;DHT22;6492;48.128;8.320;2024-01-30T02:56:37;7.80;1.00
12847;DHT22;6492;48.128;8.320;2024-01-30T03:00:40;7.70;1.00
12847;DHT22;6492;48.128;8.320;2024-01-30T03:04:41;7.70;1.00
12847;DHT22;6492;48.128;8.320;2024-01-30T03:08:43;7.50;1.00
12847;DHT22;6492;48.128;8.320;2024-01-30T03:12:46;7.60;1.00
12847;DHT22;6492;48.128;8.320;2024-01-30T03:16:48;7.60;1.00
12847;DHT22;6492;48.128;8.320;2024-01-30T03:20:50;7.60;1.00
12847;DHT22;6492;48.128;8.320;2024-01-30T03:24:52;7.60;1.00
12847;DHT22;6492;48.128;8.320;2024-01-30T03:28:55;7.50;1.00
12847;DHT22;6492;48.128;8.320;2024-01-30T03:32:57;7.40;1.00
12847;DHT22;6492;48.128;8.320;2024-01-30T03:36:58;7.40;1.00
12847;DHT22;6492;48.128;8.320;2024-01-30T03:41:00;7.40;1.00
12847;DHT22;6492;48.128;8.320;2024-01-30T03:45:04;7.40;1.00
12847;DHT22;6492;48.128;8.320;2024-01-30T03:49:06;7.40;1.00
12847;DHT22;6492;48.128;8.320;2024-01-30T03:53:08;7.50;1.00
12847;DHT22;6492;48.128;8.320;2024-01-30T03:57:10;7.60;1.00
12847;DHT22;6492;48.128;8.320;2024-01-30T04:01:14;7.60;1.00
12847;DHT22;6492;48.128;8.320;2024-01-30T04:05:16;7.70;1.00
12847;DHT22;6492;48.128;8.320;2024-01-30T04:09:24;7.60;1.00
12847;DHT22;6492;48.128;8.320;2024-01-30T04:13:26;7.60;1.00
12847;DHT22;6492;48.128;8.320;2024-01-30T04:17:30;8.10;1.00
12847;DHT22;6492;48.128;8.320;2024-01-30T04:21:31;7.50;1.00
12847;DHT22;6492;48.128;8.320;2024-01-30T04:25:33;7.60;1.00
12847;DHT22;6492;48.128;8.320;2024-01-30T04:29:35;7.50;1.00
12847;DHT22;6492;48.128;8.320;2024-01-30T04:33:38;7.40;1.00
12847;DHT22;6492;48.128;8.320;2024-01-30T04:37:40;7.40;1.00
12847;DHT22;6492;48.128;8.320;2024-01-30T04:41:42;7.40;1.00
12847;DHT22;6492;48.128;8.320;2024-01-30T04:45:43;7.20;1.00
12847;DHT22;6492;48.128;8.320;2024-01-30T04:49:47;7.00;1.00
12847;DHT22;6492;48.128;8.320;2024-01-30T04:53:48;7.00;1.00
12847;DHT22;6492;48.128;8.320;2024-01-30T04:57:50;7.00;1.00
12847;DHT22;6492;48.128;8.320;2024-01-30T05:01:52;7.00;1.00
12847;DHT22;6492;48.128;8.320;2024-01-30T05:05:55;7.10;1.00
12847;DHT22;6492;48.128;8.320;2024-01-30T05:09:57;7.10;1.00
12847;DHT22;6492;48.128;8.320;2024-01-30T05:13:58;7.10;1.00
12847;DHT22;6492;48.128;8.320;2024-01-30T05:18:00;7.00;1.00
12847;DHT22;6492;48.128;8.320;2024-01-30T05:22:14;6.90;1.00
12847;DHT22;6492;48.128;8.320;2024-01-30T05:26:18;6.70;1.00
12847;DHT22;6492;48.128;8.320;2024-01-30T05:30:20;6.60;1.00
12847;DHT22;6492;48.128;8.320;2024-01-30T05:34:22;6.50;1.00
12847;DHT22;6492;48.128;8.320;2024-01-30T05:38:26;6.40;1.00
12847;DHT22;6492;48.128;8.320;2024-01-30T05:42:27;6.40;1.00
12847;DHT22;6492;48.128;8.320;2024-01-30T05:46:29;6.60;1.00
12847;DHT22;6492;48.128;8.320;2024-01-30T05:50:31;6.70;1.00
12847;DHT22;6492;48.128;8.320;2024-01-30T05:54:34;6.90;1.00
12847;DHT22;6492;48.128;8.320;2024-01-30T05:58:36;7.00;1.00
12847;DHT22;6492;48.128;8.320;2024-01-30T06:02:38;7.00;1.00
12847;DHT22;6492;48.128;8.320;2024-01-30T06:06:40;7.10;1.00
12847;DHT22;6492;48.128;8.320;2024-01-30T06:10:43;7.20;1.00
12847;DHT22;6492;48.128;8.320;2024-01-30T06:14:45;7.10;1.00
12847;DHT22;6492;48.128;8.320;2024-01-30T06:18:48;7.00;1.00
12847;DHT22;6492;48.128;8.320;2024-01-30T06:22:51;7.00;1.00
12847;DHT22;6492;48.128;8.320;2024-01-30T06:26:55;7.30;1.00
12847;DHT22;6492;48.128;8.320;2024-01-30T06:30:57;7.40;1.00
12847;DHT22;6492;48.128;8.320;2024-01-30T06:34:59;7.20;1.00
12847;DHT22;6492;48.128;8.320;2024-01-30T06:39:00;7.20;1.00
12847;DHT22;6492;48.128;8.320;2024-01-30T06:43:04;7.20;1.00
12847;DHT22;6492;48.128;8.320;2024-01-30T06:47:06;7.10;1.00
12847;DHT22;6492;48.128;8.320;2024-01-30T06:51:08;7.10;1.00
12847;DHT22;6492;48.128;8.320;2024-01-30T06:55:10;7.10;1.00
12847;DHT22;6492;48.128;8.320;2024-01-30T06:59:13;7.00;1.00
12847;DHT22;6492;48.128;8.320;2024-01-30T07:03:20;6.90;1.00
12847;DHT22;6492;48.128;8.320;2024-01-30T07:07:22;6.80;1.00
12847;DHT22;6492;48.128;8.320;2024-01-30T07:11:24;6.80;1.00
12847;DHT22;6492;48.128;8.320;2024-01-30T07:15:28;6.70;1.00
12847;DHT22;6492;48.128;8.320;2024-01-30T07:19:30;6.70;1.00
12847;DHT22;6492;48.128;8.320;2024-01-30T07:23:34;6.60;1.00
12847;DHT22;6492;48.128;8.320;2024-01-30T07:27:35;6.60;1.00
12847;DHT22;6492;48.128;8.320;2024-01-30T07:31:38;6.70;1.00
12847;DHT22;6492;48.128;8.320;2024-01-30T07:35:40;6.70;1.00
12847;DHT22;6492;48.128;8.320;2024-01-30T07:39:42;6.60;1.00
12847;DHT22;6492;48.128;8.320;2024-01-30T07:43:44;6.60;1.00
12847;DHT22;6492;48.128;8.320;2024-01-30T07:47:54;6.60;1.00
12847;DHT22;6492;48.128;8.320;2024-01-30T07:51:56;6.70;1.00
12847;DHT22;6492;48.128;8.320;2024-01-30T07:55:58;6.80;1.00
12847;DHT22;6492;48.128;8.320;2024-01-30T08:00:05;6.80;1.00
12847;DHT22;6492;48.128;8.320;2024-01-30T08:04:09;6.90;1.00
12847;DHT22;6492;48.128;8.320;2024-01-30T08:08:11;7.00;1.00
12847;DHT22;6492;48.128;8.320;2024-01-30T08:12:20;7.10;1.00
12847;DHT22;6492;48.128;8.320;2024-01-30T08:16:21;7.20;1.00
12847;DHT22;6492;48.128;8.320;2024-01-30T08:20:33;7.40;1.00
12847;DHT22;6492;48.128;8.320;2024-01-30T08:24:35;7.50;1.00
12847;DHT22;6492;48.128;8.320;2024-01-30T08:28:42;7.60;1.00
12847;DHT22;6492;48.128;8.320;2024-01-30T08:32:44;7.70;1.00
12847;DHT22;6492;48.128;8.320;2024-01-30T08:36:47;7.80;1.00
12847;DHT22;6492;48.128;8.320;2024-01-30T08:40:52;7.90;1.00
12847;DHT22;6492;48.128;8.320;2024-01-30T08:45:03;8.00;1.00
12847;DHT22;6492;48.128;8.320;2024-01-30T08:49:05;8.10;1.00
12847;DHT22;6492;48.128;8.320;2024-01-30T08:53:09;8.30;1.00
12847;DHT22;6492;48.128;8.320;2024-01-30T08:57:11;8.50;1.00
12847;DHT22;6492;48.128;8.320;2024-01-30T09:01:14;8.60;1.00
12847;DHT22;6492;48.128;8.320;2024-01-30T09:05:16;8.80;1.00
12847;DHT22;6492;48.128;8.320;2024-01-30T09:09:19;8.90;1.00
12847;DHT22;6492;48.128;8.320;2024-01-30T09:13:21;9.00;1.00
12847;DHT22;6492;48.128;8.320;2024-01-30T09:17:23;9.10;1.00
12847;DHT22;6492;48.128;8.320;2024-01-30T09:21:27;9.10;1.00
12847;DHT22;6492;48.128;8.320;2024-01-30T09:25:30;9.20;1.00
12847;DHT22;6492;48.128;8.320;2024-01-30T09:29:32;9.30;1.00
12847;DHT22;6492;48.128;8.320;2024-01-30T09:33:34;9.40;1.00
12847;DHT22;6492;48.128;8.320;2024-01-30T09:37:36;9.50;1.00
12847;DHT22;6492;48.128;8.320;2024-01-30T09:41:45;9.70;1.00
12847;DHT22;6492;48.128;8.320;2024-01-30T09:45:48;9.80;1.00
12847;DHT22;6492;48.128;8.320;2024-01-30T09:49:53;9.80;1.00
12847;DHT22;6492;48.128;8.320;2024-01-30T09:53:56;9.80;1.00
12847;DHT22;6492;48.128;8.320;2024-01-30T09:58:00;9.70;1.00
12847;DHT22;6492;48.128;8.320;2024-01-30T10:02:02;9.80;1.00
12847;DHT22;6492;48.128;8.320;2024-01-30T10:06:05;9.90;1.00
12847;DHT22;6492;48.128;8.320;2024-01-30T10:10:08;10.10;1.00
12847;DHT22;6492;48.128;8.320;2024-01-30T10:14:11;10.20;1.00
12847;DHT22;6492;48.128;8.320;2024-01-30T10:18:13;10.20;1.00
12847;DHT22;6492;48.128;8.320;2024-01-30T10:22:15;10.30;1.00
12847;DHT22;6492;48.128;8.320;2024-01-30T10:26:17;10.50;1.00
12847;DHT22;6492;48.128;8.320;2024-01-30T10:30:20;10.60;1.00
12847;DHT22;6492;48.128;8.320;2024-01-30T10:34:22;10.80;1.00
12847;DHT22;6492;48.128;8.320;2024-01-30T10:38:24;10.90;1.00
12847;DHT22;6492;48.128;8.320;2024-01-30T10:42:31;10.90;1.00
12847;DHT22;6492;48.128;8.320;2024-01-30T10:46:37;11.00;1.00
12847;DHT22;6492;48.128;8.320;2024-01-30T10:50:40;11.10;1.00
12847;DHT22;6492;48.128;8.320;2024-01-30T10:54:44;11.20;1.00
12847;DHT22;6492;48.128;8.320;2024-01-30T10:58:47;11.40;1.00
12847;DHT22;6492;48.128;8.320;2024-01-30T11:02:51;11.30;1.00
12847;DHT22;6492;48.128;8.320;2024-01-30T11:06:54;11.20;1.00
12847;DHT22;6492;48.128;8.320;2024-01-30T11:10:56;11.40;1.00
12847;DHT22;6492;48.128;8.320;2024-01-30T11:15:03;11.90;1.00
12847;DHT22;6492;48.128;8.320;2024-01-30T11:19:10;11.80;1.00
12847;DHT22;6492;48.128;8.320;2024-01-30T11:23:12;11.80;1.00
12847;DHT22;6492;48.128;8.320;2024-01-30T11:27:15;11.80;1.00
12847;DHT22;6492;48.128;8.320;2024-01-30T11:31:19;11.70;1.00
12847;DHT22;6492;48.128;8.320;2024-01-30T11:35:22;11.80;1.00
12847;DHT22;6492;48.128;8.320;2024-01-30T11:39:25;11.90;1.00
12847;DHT22;6492;48.128;8.320;2024-01-30T11:43:27;11.90;1.00
12847;DHT22;6492;48.128;8.320;2024-01-30T11:47:28;11.80;1.00
12847;DHT22;6492;48.128;8.320;2024-01-30T11:51:32;11.70;1.00
12847;DHT22;6492;48.128;8.320;2024-01-30T11:55:33;11.70;1.00
12847;DHT22;6492;48.128;8.320;2024-01-30T11:59:37;11.60;1.00
12847;DHT22;6492;48.128;8.320;2024-01-30T12:03:39;11.40;1.00
12847;DHT22;6492;48.128;8.320;2024-01-30T12:07:44;11.30;1.00
12847;DHT22;6492;48.128;8.320;2024-01-30T12:11:47;11.30;1.00
12847;DHT22;6492;48.128;8.320;2024-01-30T12:15:49;11.10;1.00
12847;DHT22;6492;48.128;8.320;2024-01-30T12:19:51;11.10;1.00
12847;DHT22;6492;48.128;8.320;2024-01-30T12:23:56;11.20;1.00
12847;DHT22;6492;48.128;8.320;2024-01-30T12:27:58;11.10;1.00
12847;DHT22;6492;48.128;8.320;2024-01-30T12:32:00;11.10;1.00
12847;DHT22;6492;48.128;8.320;2024-01-30T12:36:02;10.90;1.00
12847;DHT22;6492;48.128;8.320;2024-01-30T12:40:07;10.90;1.00
12847;DHT22;6492;48.128;8.320;2024-01-30T12:44:09;10.90;1.00
12847;DHT22;6492;48.128;8.320;2024-01-30T12:48:11;11.00;1.00
12847;DHT22;6492;48.128;8.320;2024-01-30T12:52:14;10.90;1.00
12847;DHT22;6492;48.128;8.320;2024-01-30T12:56:17;10.70;1.00
12847;DHT22;6492;48.128;8.320;2024-01-30T13:00:19;10.60;1.00
12847;DHT22;6492;48.128;8.320;2024-01-30T13:04:21;10.60;1.00
12847;DHT22;6492;48.128;8.320;2024-01-30T13:08:23;10.60;1.00
12847;DHT22;6492;48.128;8.320;2024-01-30T13:12:27;10.90;1.00
12847;DHT22;6492;48.128;8.320;2024-01-30T13:16:28;11.50;1.00
12847;DHT22;6492;48.128;8.320;2024-01-30T13:20:30;11.80;1.00
12847;DHT22;6492;48.128;8.320;2024-01-30T13:24:32;11.80;1.00
12847;DHT22;6492;48.128;8.320;2024-01-30T13:28:35;11.70;1.00
12847;DHT22;6492;48.128;8.320;2024-01-30T13:32:37;11.40;1.00
12847;DHT22;6492;48.128;8.320;2024-01-30T13:36:49;11.10;1.00
12847;DHT22;6492;48.128;8.320;2024-01-30T13:40:51;11.00;1.00
12847;DHT22;6492;48.128;8.320;2024-01-30T13:44:54;11.00;1.00
12847;DHT22;6492;48.128;8.320;2024-01-30T13:48:56;11.00;1.00
12847;DHT22;6492;48.128;8.320;2024-01-30T13:52:57;11.10;1.00
12847;DHT22;6492;48.128;8.320;2024-01-30T13:56:59;11.30;1.00
12847;DHT22;6492;48.128;8.320;2024-01-30T14:01:02;11.40;1.00
12847;DHT22;6492;48.128;8.320;2024-01-30T14:05:06;11.30;1.00
12847;DHT22;6492;48.128;8.320;2024-01-30T14:09:07;11.10;1.00
12847;DHT22;6492;48.128;8.320;2024-01-30T14:13:10;10.90;1.00
12847;DHT22;6492;48.128;8.320;2024-01-30T14:17:14;10.70;1.00
12847;DHT22;6492;48.128;8.320;2024-01-30T14:21:16;10.60;1.00
12847;DHT22;6492;48.128;8.320;2024-01-30T14:25:17;10.40;1.00
12847;DHT22;6492;48.128;8.320;2024-01-30T14:29:20;10.40;1.00
12847;DHT22;6492;48.128;8.320;2024-01-30T14:33:23;10.40;1.00
12847;DHT22;6492;48.128;8.320;2024-01-30T14:37:24;10.40;1.00
12847;DHT22;6492;48.128;8.320;2024-01-30T14:41:29;10.40;1.00
12847;DHT22;6492;48.128;8.320;2024-01-30T14:45:31;10.30;1.00
12847;DHT22;6492;48.128;8.320;2024-01-30T14:49:34;10.30;1.00
12847;DHT22;6492;48.128;8.320;2024-01-30T14:53:36;10.20;1.00
12847;DHT22;6492;48.128;8.320;2024-01-30T14:57:38;10.10;1.00
12847;DHT22;6492;48.128;8.320;2024-01-30T15:01:42;10.00;1.00
12847;DHT22;6492;48.128;8.320;2024-01-30T15:05:47;9.90;1.20
12847;DHT22;6492;48.128;8.320;2024-01-30T15:09:48;9.80;1.20
12847;DHT22;6492;48.128;8.320;2024-01-30T15:13:50;9.70;1.70
12847;DHT22;6492;48.128;8.320;2024-01-30T15:17:52;9.90;2.50
12847;DHT22;6492;48.128;8.320;2024-01-30T15:21:55;9.50;2.60
12847;DHT22;6492;48.128;8.320;2024-01-30T15:26:06;9.40;3.10
12847;DHT22;6492;48.128;8.320;2024-01-30T15:30:14;9.30;3.40
12847;DHT22;6492;48.128;8.320;2024-01-30T15:34:22;9.20;4.00
12847;DHT22;6492;48.128;8.320;2024-01-30T15:38:25;9.10;4.50
12847;DHT22;6492;48.128;8.320;2024-01-30T15:42:38;9.00;5.00
12847;DHT22;6492;48.128;8.320;2024-01-30T15:46:39;8.80;5.50
12847;DHT22;6492;48.128;8.320;2024-01-30T15:50:41;8.70;6.20
12847;DHT22;6492;48.128;8.320;2024-01-30T15:54:45;8.60;7.00
12847;DHT22;6492;48.128;8.320;2024-01-30T15:58:47;8.50;7.40
12847;DHT22;6492;48.128;8.320;2024-01-30T16:02:50;8.40;8.20
12847;DHT22;6492;48.128;8.320;2024-01-30T16:06:52;8.30;8.60
12847;DHT22;6492;48.128;8.320;2024-01-30T16:10:55;8.10;8.90
12847;DHT22;6492;48.128;8.320;2024-01-30T16:14:57;8.00;9.20
12847;DHT22;6492;48.128;8.320;2024-01-30T16:19:00;7.90;10.00
12847;DHT22;6492;48.128;8.320;2024-01-30T16:23:02;7.80;10.90
12847;DHT22;6492;48.128;8.320;2024-01-30T16:27:06;7.80;11.60
12847;DHT22;6492;48.128;8.320;2024-01-30T16:31:08;7.80;12.30
12847;DHT22;6492;48.128;8.320;2024-01-30T16:35:09;7.70;12.70
12847;DHT22;6492;48.128;8.320;2024-01-30T16:39:11;7.70;12.70
12847;DHT22;6492;48.128;8.320;2024-01-30T16:43:14;7.60;13.30
12847;DHT22;6492;48.128;8.320;2024-01-30T16:47:16;7.50;14.10
12847;DHT22;6492;48.128;8.320;2024-01-30T16:51:18;7.40;14.80
12847;DHT22;6492;48.128;8.320;2024-01-30T16:55:20;7.30;14.70
12847;DHT22;6492;48.128;8.320;2024-01-30T16:59:24;7.30;15.50
12847;DHT22;6492;48.128;8.320;2024-01-30T17:03:26;7.20;15.50
12847;DHT22;6492;48.128;8.320;2024-01-30T17:07:28;7.10;15.90
12847;DHT22;6492;48.128;8.320;2024-01-30T17:11:34;7.10;16.70
12847;DHT22;6492;48.128;8.320;2024-01-30T17:15:38;7.00;16.80
12847;DHT22;6492;48.128;8.320;2024-01-30T17:19:41;7.00;17.60
12847;DHT22;6492;48.128;8.320;2024-01-30T17:23:46;7.00;17.60
12847;DHT22;6492;48.128;8.320;2024-01-30T17:27:48;7.00;17.50
12847;DHT22;6492;48.128;8.320;2024-01-30T17:31:52;7.00;17.60
12847;DHT22;6492;48.128;8.320;2024-01-30T17:36:05;7.00;17.60
12847;DHT22;6492;48.128;8.320;2024-01-30T17:40:08;6.90;17.60
12847;DHT22;6492;48.128;8.320;2024-01-30T17:44:11;6.90;17.60
12847;DHT22;6492;48.128;8.320;2024-01-30T17:48:15;6.90;17.90
12847;DHT22;6492;48.128;8.320;2024-01-30T17:52:18;6.90;18.20
12847;DHT22;6492;48.128;8.320;2024-01-30T17:56:19;7.00;18.10
12847;DHT22;6492;48.128;8.320;2024-01-30T18:00:22;7.00;18.30
12847;DHT22;6492;48.128;8.320;2024-01-30T18:04:27;7.00;18.30
12847;DHT22;6492;48.128;8.320;2024-01-30T18:08:28;7.00;18.20
12847;DHT22;6492;48.128;8.320;2024-01-30T18:12:30;7.00;18.00
12847;DHT22;6492;48.128;8.320;2024-01-30T18:16:32;7.10;18.20
12847;DHT22;6492;48.128;8.320;2024-01-30T18:20:35;7.00;18.00
12847;DHT22;6492;48.128;8.320;2024-01-30T18:24:37;7.00;17.90
12847;DHT22;6492;48.128;8.320;2024-01-30T18:28:47;7.00;17.90
12847;DHT22;6492;48.128;8.320;2024-01-30T18:32:49;7.00;17.80
12847;DHT22;6492;48.128;8.320;2024-01-30T18:36:53;7.00;18.00
12847;DHT22;6492;48.128;8.320;2024-01-30T18:40:58;6.90;18.20
12847;DHT22;6492;48.128;8.320;2024-01-30T18:45:10;6.90;18.30
12847;DHT22;6492;48.128;8.320;2024-01-30T18:49:18;6.90;19.10
12847;DHT22;6492;48.128;8.320;2024-01-30T18:53:28;6.90;18.90
12847;DHT22;6492;48.128;8.320;2024-01-30T18:57:30;6.80;19.50
12847;DHT22;6492;48.128;8.320;2024-01-30T19:01:34;6.80;19.90
12847;DHT22;6492;48.128;8.320;2024-01-30T19:05:36;6.80;20.70
12847;DHT22;6492;48.128;8.320;2024-01-30T19:09:39;6.80;21.40
12847;DHT22;6492;48.128;8.320;2024-01-30T19:13:41;6.70;22.20
12847;DHT22;6492;48.128;8.320;2024-01-30T19:17:50;6.60;22.80
12847;DHT22;6492;48.128;8.320;2024-01-30T19:21:52;6.60;22.60
12847;DHT22;6492;48.128;8.320;2024-01-30T19:25:55;6.40;23.10
12847;DHT22;6492;48.128;8.320;2024-01-30T19:30:06;6.30;24.00
12847;DHT22;6492;48.128;8.320;2024-01-30T19:34:09;6.10;24.50
12847;DHT22;6492;48.128;8.320;2024-01-30T19:38:24;6.00;25.10
12847;DHT22;6492;48.128;8.320;2024-01-30T19:42:27;5.90;25.80
12847;DHT22;6492;48.128;8.320;2024-01-30T19:46:29;5.90;25.70
12847;DHT22;6492;48.128;8.320;2024-01-30T19:50:39;5.80;25.50
12847;DHT22;6492;48.128;8.320;2024-01-30T19:54:41;5.80;26.20
12847;DHT22;6492;48.128;8.320;2024-01-30T19:58:45;5.70;25.70
12847;DHT22;6492;48.128;8.320;2024-01-30T20:02:47;5.50;25.90
12847;DHT22;6492;48.128;8.320;2024-01-30T20:06:49;5.20;26.30
12847;DHT22;6492;48.128;8.320;2024-01-30T20:10:53;5.10;27.70
12847;DHT22;6492;48.128;8.320;2024-01-30T20:14:57;4.90;28.60
12847;DHT22;6492;48.128;8.320;2024-01-30T20:19:00;4.80;29.80
12847;DHT22;6492;48.128;8.320;2024-01-30T20:23:02;4.70;31.40
12847;DHT22;6492;48.128;8.320;2024-01-30T20:27:04;4.80;32.90
12847;DHT22;6492;48.128;8.320;2024-01-30T20:31:11;4.90;32.80
12847;DHT22;6492;48.128;8.320;2024-01-30T20:35:14;5.10;33.30
12847;DHT22;6492;48.128;8.320;2024-01-30T20:39:16;5.20;32.30
12847;DHT22;6492;48.128;8.320;2024-01-30T20:43:17;5.30;31.90
12847;DHT22;6492;48.128;8.320;2024-01-30T20:47:21;5.50;31.10
12847;DHT22;6492;48.128;8.320;2024-01-30T20:51:22;5.60;30.40
12847;DHT22;6492;48.128;8.320;2024-01-30T20:55:24;5.70;29.70
12847;DHT22;6492;48.128;8.320;2024-01-30T20:59:27;5.60;29.70
12847;DHT22;6492;48.128;8.320;2024-01-30T21:03:30;5.50;29.70
12847;DHT22;6492;48.128;8.320;2024-01-30T21:07:32;5.30;29.80
12847;DHT22;6492;48.128;8.320;2024-01-30T21:11:34;5.80;31.50
12847;DHT22;6492;48.128;8.320;2024-01-30T21:15:36;5.20;31.50
12847;DHT22;6492;48.128;8.320;2024-01-30T21:19:39;5.20;31.70
12847;DHT22;6492;48.128;8.320;2024-01-30T21:23:42;5.10;31.60
12847;DHT22;6492;48.128;8.320;2024-01-30T21:27:44;4.90;32.30
12847;DHT22;6492;48.128;8.320;2024-01-30T21:31:46;4.60;33.40
12847;DHT22;6492;48.128;8.320;2024-01-30T21:35:50;4.60;36.00
12847;DHT22;6492;48.128;8.320;2024-01-30T21:39:52;4.50;37.50
12847;DHT22;6492;48.128;8.320;2024-01-30T21:43:55;4.50;38.00
12847;DHT22;6492;48.128;8.320;2024-01-30T21:47:57;4.40;37.50
12847;DHT22;6492;48.128;8.320;2024-01-30T21:52:06;4.30;37.90
12847;DHT22;6492;48.128;8.320;2024-01-30T21:56:08;4.20;38.00
12847;DHT22;6492;48.128;8.320;2024-01-30T22:00:11;4.10;38.90
12847;DHT22;6492;48.128;8.320;2024-01-30T22:04:26;3.90;39.10
12847;DHT22;6492;48.128;8.320;2024-01-30T22:08:29;3.90;40.80
12847;DHT22;6492;48.128;8.320;2024-01-30T22:12:31;3.70;41.00
12847;DHT22;6492;48.128;8.320;2024-01-30T22:16:32;3.70;42.10
12847;DHT22;6492;48.128;8.320;2024-01-30T22:20:34;3.70;42.50
12847;DHT22;6492;48.128;8.320;2024-01-30T22:24:37;3.70;43.60
12847;DHT22;6492;48.128;8.320;2024-01-30T22:28:39;3.80;44.80
12847;DHT22;6492;48.128;8.320;2024-01-30T22:32:48;3.90;45.40
12847;DHT22;6492;48.128;8.320;2024-01-30T22:36:49;4.00;45.10
12847;DHT22;6492;48.128;8.320;2024-01-30T22:40:53;4.20;46.00
12847;DHT22;6492;48.128;8.320;2024-01-30T22:44:54;4.30;44.90
12847;DHT22;6492;48.128;8.320;2024-01-30T22:48:56;4.50;44.10
12847;DHT22;6492;48.128;8.320;2024-01-30T22:52:58;4.60;43.40
12847;DHT22;6492;48.128;8.320;2024-01-30T22:57:01;4.80;42.00
12847;DHT22;6492;48.128;8.320;2024-01-30T23:01:04;5.00;40.40
12847;DHT22;6492;48.128;8.320;2024-01-30T23:05:08;5.20;38.30
12847;DHT22;6492;48.128;8.320;2024-01-30T23:09:09;5.30;37.10
12847;DHT22;6492;48.128;8.320;2024-01-30T23:13:15;5.40;36.20
12847;DHT22;6492;48.128;8.320;2024-01-30T23:17:17;5.40;35.80
12847;DHT22;6492;48.128;8.320;2024-01-30T23:21:20;5.40;35.30
12847;DHT22;6492;48.128;8.320;2024-01-30T23:25:22;5.50;34.90
12847;DHT22;6492;48.128;8.320;2024-01-30T23:29:25;5.60;34.40
12847;DHT22;6492;48.128;8.320;2024-01-30T23:33:27;5.50;34.10
12847;DHT22;6492;48.128;8.320;2024-01-30T23:37:28;5.40;33.80
12847;DHT22;6492;48.128;8.320;2024-01-30T23:41:30;5.40;33.70
12847;DHT22;6492;48.128;8.320;2024-01-30T23:45:57;5.30;33.90
12847;DHT22;6492;48.128;8.320;2024-01-30T23:49:59;5.30;34.60
12847;DHT22;6492;48.128;8.320;2024-01-30T23:54:00;5.30;34.40
12847;DHT22;6492;48.128;8.320;2024-01-30T23:58:02;5.40;34.00
